Tiempo atmosférico en la estación meteorológica de Estepona, Málaga (15 m.)



Fecha
DESCASC
Temp. máxima en grados centígrados (hora)
DESCASC
Temp. mínima en grados centígrados (hora)
DESCASC
Temp. media en grados centígrados
DESCASC
Racha de viento máxima en m/sg (hora)
DESCASC
Velocidad máxima media en intervalos de 10 minutos(hora)
DESCASC
Precipitaciones diarias en mm
DESCASC
Precipitaciones de 00:00 a 06:00 en mm
DESCASC
Precipitaciones de 06:00 a 12:00 en mm
DESCASC
Precipitaciones de 12:00 a 18:00 en mm
DESCASC
Precipitaciones de 18:00 a 24:00 en mm
DESCASC
18-10-2018 20.2 (14:20) 13.4 (10:20) 16.8 -- (--) -- (--) 43.2 0 36.8 6.4 0
17-10-2018 25.8 (15:50) 15.8 (08:30) 20.8 6.39 (22:50) 3.61 (22:40) 0 0 0 0 0
16-10-2018 23 (14:00) 15.5 (08:40) 19.3 7.5 (00:40) 4.72 (00:10) -- 0 0 0 --
15-10-2018 23.9 (16:20) 14.6 (07:00) 19.3 14.72 (16:30) 7.5 (12:30) 8.2 0 0 0 8.2
14-10-2018 24 (15:00) 17.9 (00:00) 20.9 15.28 (15:10) 7.5 (12:20) 0 0 0 0 0
13-10-2018 25.4 (15:10) 18.9 (00:00) 22.1 7.22 (12:50) 4.17 (12:40) 0 0 0 0 0
12-10-2018 27.7 (15:10) 17.3 (00:00) 22.5 6.39 (00:20) 2.5 (00:10) 0 0 0 0 0
11-10-2018 27.5 (17:50) 19.7 (10:20) 23.6 11.67 (15:00) 5.83 (15:00) -- -- -- 0 0
10-10-2018 24.3 (14:00) 17.1 (00:00) 20.7 14.17 (02:40) 7.22 (02:40) -- -- -- -- --
09-10-2018 23.7 (12:10) 20 (08:10) 21.9 11.11 (08:40) 6.94 (08:50) -- -- -- -- --
08-10-2018 27 (13:40) 20.6 (04:10) 23.8 7.5 (01:20) 3.89 (01:10) -- -- -- -- --
07-10-2018 34.6 (15:20) 17.9 (08:00) 26.2 11.67 (15:50) 6.94 (15:50) 0 0 0 0 0
06-10-2018 26.9 (15:20) 19.3 (01:20) 23.1 7.22 (11:00) 4.72 (11:00) 0 0 0 0 0
05-10-2018 25.3 (14:40) 18.8 (01:20) 22 10 (14:20) 6.39 (14:20) 0 0 0 0 0
04-10-2018 25.2 (16:00) 19.6 (00:00) 22.4 9.17 (14:50) 5.28 (14:50) 0 0 0 0 0
03-10-2018 25.1 (13:40) 20.2 (00:00) 22.7 10.28 (13:10) 6.67 (13:20) 0 0 0 0 0
02-10-2018 25.9 (12:10) 20.2 (00:00) 23.1 8.89 (13:00) 5.83 (14:00) 0 0 0 0 0
01-10-2018 28 (14:50) 20.9 (00:00) 24.4 6.39 (17:30) 3.06 (15:30) 0 0 0 0 0
30-09-2018 26.9 (13:40) 19.9 (00:00) 23.4 5 (01:50) 3.06 (10:20) 0 0 0 0 0
29-09-2018 27.4 (14:50) 20.6 (00:00) 24 6.39 (11:00) 4.17 (11:00) 0 0 0 0 0
28-09-2018 25.6 (12:30) 21.6 (00:00) 23.6 9.17 (13:50) 5.56 (12:40) 0 0 0 0 0
27-09-2018 26 (12:20) 22.8 (00:00) 24.4 11.11 (13:40) 6.67 (16:20) 0 0 0 0 0
26-09-2018 28.1 (15:00) 23.3 (00:00) 25.7 10.28 (17:40) 6.39 (17:50) 0 0 0 0 0
25-09-2018 28.6 (17:00) 22.2 (00:00) 25.4 9.17 (14:10) 6.11 (13:50) 0 0 0 0 0
24-09-2018 30.1 (11:40) 21.7 (00:00) 25.9 5.83 (03:40) 2.78 (04:40) 0 0 0 0 0
23-09-2018 30 (15:00) 22 (08:30) 26 8.89 (18:50) 5 (18:50) 0 0 0 0 0
22-09-2018 28.8 (16:10) 18.6 (08:00) 23.7 9.17 (18:50) 5.28 (15:20) 0 0 0 0 0
21-09-2018 28.9 (14:30) 20 (07:50) 24.4 4.17 (17:10) 2.5 (16:30) 0 0 0 0 0
20-09-2018 27.9 (13:00) 22.3 (23:00) 25.1 6.11 (13:20) 3.89 (12:00) 0 0 0 0 0

Gráficas

Temp. máximas Temp. mínimas Temp. medias Precipitaciones Rachas de viento máximas Velocidades máximas media en intervalos de 10 minutos

Datos horarios

Fecha y hora oficial Temperatura (ºC) Velocidad del viento (km/h) Dirección del viento Racha (km/h) Dirección de racha Precipitación (mm) Presión (hPa) Tendencia (hPa) Humedad (%)
2018-10-19 23:00:00 15.5 8 Nordeste 20 Nordeste 0 1012.5 0.9 77
2018-10-19 22:00:00 16.1 9 Nordeste 25 Nordeste 0 1012.3 1.2 81
2018-10-19 21:00:00 16.3 9 Nordeste 22 Nordeste 0.6 1012.1 2.2 81
2018-10-19 20:00:00 16 -- -- -- -- 4.6 1011.6 1.3 79
2018-10-19 19:00:00 16.7 7 Nordeste 29 Nordeste 1.2 1011.1 0.7 75
2018-10-19 18:00:00 18.7 10 Nordeste 26 Este 0 1009.9 -0.6 58
2018-10-19 17:00:00 19.5 10 Nordeste 29 Este 0 1010.3 -0.5 56
2018-10-19 16:00:00 18.8 12 Nordeste 39 Este 0 1010.4 -0.2 63
2018-10-19 15:00:00 17.4 17 Nordeste 34 Este 0 1010.5 -0.3 74
2018-10-19 14:00:00 16.9 21 Este 39 Este 0 1010.8 0.3 73
2018-10-19 13:00:00 17.9 8 Este 17 Este 0 1010.6 0.4 68
2018-10-19 12:00:00 18 8 Este -- -- 0 1010.8 1.6 67
2018-10-19 11:00:00 16.1 5 Oeste 19 Oeste 0 1010.5 2 71
2018-10-19 10:00:00 15.5 14 Oeste -- -- 0 1010.2 1.3 74
2018-10-19 09:00:00 14.7 4 Norte 11 Nordeste 0 1009.2 0.3 72
2018-10-19 08:00:00 14.7 4 Norte -- -- 0 1008.5 -0.2 73
2018-10-19 07:00:00 14.3 3 Norte 9 Nordeste 0 1008.9 -0.1 73
2018-10-19 06:00:00 13.9 3 Noroeste 9 Nordeste 0 1008.9 -0.3 71
2018-10-19 05:00:00 13.4 -- -- -- -- 0 1008.7 -0.8 72
2018-10-19 04:00:00 12.8 3 Noroeste 7 Norte 0 1009 -0.4 76
2018-10-19 03:00:00 13.2 3 Noroeste 8 Noroeste 0 1009.2 -0.3 79
2018-10-19 02:00:00 12.8 3 Nordeste 8 Este 0 1009.5 -0.2 79
2018-10-19 01:00:00 13.4 2 Oeste -- -- 0 1009.4 -0.2 76
2018-10-19 00:00:00 13.7 -- -- -- -- 0 1009.5 0.3 76
2018-10-18 23:00:00 14 3 Norte 8 Nordeste 0 1009.7 0.8 76
2018-10-18 22:00:00 14.2 2 Noroeste 8 Nordeste 0 1009.6 1.9 78
2018-10-18 21:00:00 14.2 2 Norte 8 Este 0 1009.2 1.7 79
2018-10-18 20:00:00 14.6 4 Este 8 Nordeste 0 1008.9 0.9 79
2018-10-18 19:00:00 15.7 4 Nordeste -- -- 0 1007.7 0.8 79
2018-10-18 18:00:00 15.3 4 Nordeste -- -- 0 1007.5 0.7 78
2018-10-18 17:00:00 16 7 Nordeste -- -- 1.2 1008 1 81
2018-10-18 16:00:00 16 -- -- -- -- 5.2 1006.9 -0.9 76
2018-10-18 15:00:00 18 25 Este 42 Este 0 1006.8 -0.2 68
2018-10-18 14:00:00 19.3 10 Sudeste 18 Sudeste 0 1007 0.9 67
2018-10-18 13:00:00 18.8 7 Sur 16 Sudoeste 0 1007.8 2.7 71
2018-10-18 12:00:00 15.4 12 Oeste 25 Oeste 0 1007 -0.6 84
2018-10-18 11:00:00 14.3 14 Sudoeste 38 Nordeste 0.2 1006.1 -0.3 84
2018-10-18 10:00:00 14.2 10 Norte 27 Nordeste 7 1005.1 -1.8 84
2018-10-18 09:00:00 15.2 9 Oeste 48 Oeste 25.2 1007.6 0.3 83
2018-10-18 08:00:00 17.9 5 Oeste 16 Oeste 4.4 1006.4 -1.8 81
2018-10-18 07:00:00 18.5 2 Noroeste 15 Sudoeste 0 1006.9 -2.3 76
2018-10-18 06:00:00 18.8 5 Sudoeste 12 Sudoeste 0 1007.3 -2.7 76
2018-10-18 05:00:00 18.8 5 Oeste 13 Oeste 0 1008.2 -2.6 73
2018-10-18 04:00:00 18.7 7 Oeste 19 Oeste 0 1009.2 -2.2 73
2018-10-18 03:00:00 18.3 6 Oeste 13 Oeste 0 1010 -2.1 70
2018-10-18 02:00:00 18.4 5 Oeste 13 Oeste 0 1010.8 -1.8 72
2018-10-18 01:00:00 18.4 4 Nordeste 9 Este 0 1011.4 -0.9 75
2018-10-18 00:00:00 19.6 3 Nordeste 22 Oeste 0 1012.1 -0.4 65
2018-10-17 23:00:00 20.4 11 Oeste 23 Sudoeste 0 1012.6 0.2 62
2018-10-17 22:00:00 20.8 10 Oeste 22 Oeste 0 1012.3 -0.1 60
2018-10-17 21:00:00 19.2 8 Oeste 20 Oeste 0 1012.5 -0.4 77
2018-10-17 20:00:00 20.4 4 Este 10 Nordeste 0 1012.4 -1 77
2018-10-17 19:00:00 21.6 5 Nordeste 10 Nordeste 0 1012.4 -1.4 73
2018-10-17 18:00:00 22.7 6 Este 10 Este 0 1012.9 -1.3 67
2018-10-17 17:00:00 24.2 4 Sudoeste 10 Sudoeste 0 1013.4 -1.9 60
2018-10-17 16:00:00 25.8 6 Sudoeste 15 Sudoeste 0 1013.8 -2 55
2018-10-17 15:00:00 25.4 6 Sudoeste 14 Sudoeste 0 1014.2 -1.5 57
2018-10-17 14:00:00 24.3 10 Sudoeste 16 Sudoeste 0 1015.3 -0.6 59
2018-10-17 13:00:00 23.2 4 Sur 9 Sudeste 0 1015.8 0 57
2018-10-17 12:00:00 22.4 3 Sur 8 Sudeste 0 1015.7 0.3 63
2018-10-17 11:00:00 20.5 3 Sur 5 Sur 0 1015.9 0.7 70
2018-10-17 10:00:00 17.8 2 Sur 4 Sur 0 1015.8 0.7 78
2018-10-17 09:00:00 16 2 Norte 5 Norte 0 1015.4 0.6 79
2018-10-17 08:00:00 16.1 2 Noroeste 7 Norte 0 1015.2 0.3 75
2018-10-17 07:00:00 16.8 3 Noroeste 7 Norte 0 1015.1 -0.1 74
2018-10-17 06:00:00 17.4 4 Noroeste 6 Norte 0 1014.8 -0.6 73
2018-10-17 05:00:00 17 3 Noroeste 6 Oeste 0 1014.9 -0.5 74
2018-10-17 04:00:00 17.2 2 Noroeste 8 Nordeste 0 1015.2 -0.2 72
2018-10-17 03:00:00 17.7 2 Noroeste 9 Nordeste 0 1015.4 -0.2 69
2018-10-17 02:00:00 18.2 3 Norte 13 Nordeste 0 1015.4 0.1 68
2018-10-17 01:00:00 18.3 4 Norte 12 Nordeste 0 1015.4 0.9 69
2018-10-17 00:00:00 17.8 3 Norte 13 Este 0 1015.6 1.6 71
2018-10-16 23:00:00 18.4 5 Este 10 Este 0 1015.3 1.9 74
2018-10-16 22:00:00 19.3 4 Nordeste 9 Este 0 1014.5 1.7 68
2018-10-16 21:00:00 20.7 5 Nordeste 11 Nordeste 0 1014 1.5 64
2018-10-16 20:00:00 20.7 5 Nordeste 13 Nordeste 0 1013.4 1.2 64
2018-10-16 19:00:00 21.2 9 Nordeste -- -- -- 1012.8 0.9 68
2018-10-16 18:00:00 21.8 11 Nordeste 24 Este 0 1012.5 0.6 68
2018-10-16 17:00:00 22 10 Nordeste 21 Nordeste 0 1012.2 0 66
2018-10-16 16:00:00 21.7 11 Este 20 Este 0 1011.9 -0.4 66
2018-10-16 15:00:00 21.5 4 Este 15 Este 0 1011.9 0 64
2018-10-16 14:00:00 22.6 9 Este 16 Nordeste 0 1012.2 0.4 58
2018-10-16 13:00:00 22.9 5 Este 9 Este 0 1012.3 1.3 60
2018-10-16 12:00:00 21.4 3 Sur 6 Sur 0 1011.9 1.6 65
2018-10-16 11:00:00 19 2 Este 8 Este 0 1011.8 1.9 80
2018-10-16 10:00:00 17.5 4 Este 8 Nordeste 0 1011 1.4 85
2018-10-16 09:00:00 15.6 3 Nordeste 6 Noroeste 0 1010.3 0.9 85
2018-10-16 08:00:00 15.8 4 Noroeste 13 Oeste 0 1009.9 0.7 86
2018-10-16 07:00:00 15.7 4 Nordeste 12 Nordeste 0 1009.6 0.1 86
2018-10-16 06:00:00 16.3 4 Noroeste 9 Nordeste 0 1009.4 -0.6 85
2018-10-16 05:00:00 16.7 4 Nordeste 9 Nordeste 0 1009.2 -0.6 85
2018-10-16 04:00:00 17.1 5 Este 16 Sudoeste 0 1009.5 -0.5 85
2018-10-16 03:00:00 17.1 2 Sudoeste 16 Sudoeste 0 1010 -0.2 86
2018-10-16 02:00:00 17.3 10 Sudoeste 23 Oeste 0 1009.8 -0.6 86
2018-10-16 01:00:00 17.1 13 Sudoeste 27 Sudoeste 0 1010 -0.7 86
2018-10-16 00:00:00 17.2 15 Sudoeste 35 Sudoeste 0.8 1010.2 -0.8 86
2018-10-15 23:00:00 17.4 18 Sudoeste 40 Oeste 2.6 1010.4 -0.7 85
2018-10-15 22:00:00 17.1 9 Oeste 17 Oeste 2 1010.7 -0.4 83
2018-10-15 21:00:00 17.6 7 Oeste 17 Noroeste 2.8 1011 0.3 78
2018-10-15 20:00:00 18.9 6 Oeste 28 Oeste 0 1011.1 0.3 66
2018-10-15 19:00:00 19.5 14 Oeste 42 Oeste 0 1011.1 -0.1 63
2018-10-15 18:00:00 21.4 19 Oeste 42 Oeste 0 1010.7 -1.6 48
2018-10-15 17:00:00 22.9 18 Oeste 53 Sudoeste 0 1010.8 -2.1 40
2018-10-15 16:00:00 23.6 19 Oeste 44 Oeste 0 1011.2 -2.4 34
2018-10-15 15:00:00 23.3 22 Oeste 48 Oeste 0 1012.3 -0.9 34
2018-10-15 14:00:00 21.6 15 Oeste 34 Oeste 0 1012.9 -0.2 36
2018-10-15 13:00:00 21.2 18 Oeste 50 Sudoeste 0 1013.6 0.5 33
2018-10-15 12:00:00 20.5 22 Oeste 50 Oeste 0 1013.2 0.2 31
2018-10-15 11:00:00 19.4 25 Oeste 48 Oeste 0 1013.1 0.3 28
2018-10-15 10:00:00 18 18 Oeste 40 Oeste 0 1013.1 0.1 35
2018-10-15 09:00:00 16.2 19 Oeste 36 Oeste 0 1013 0.2 43
2018-10-15 08:00:00 14.6 15 Oeste 34 Oeste 0 1012.8 0 60
2018-10-15 07:00:00 14.6 15 Oeste 30 Oeste 0 1013 -0.2 60
2018-10-15 06:00:00 15.3 10 Oeste 22 Oeste 0 1012.8 -0.9 56
2018-10-15 05:00:00 16.2 13 Oeste 25 Sudoeste 0 1012.8 -1 53
2018-10-15 04:00:00 16.9 9 Oeste 23 Noroeste 0 1013.2 -0.6 44
2018-10-15 03:00:00 17.4 10 Oeste 28 Sudoeste 0 1013.7 0.1 45
2018-10-15 02:00:00 17.2 14 Oeste 24 Oeste 0 1013.8 0.8 48
2018-10-15 01:00:00 18 9 Oeste 27 Oeste 0 1013.8 1.4 43
2018-10-15 00:00:00 18.2 13 Oeste 28 Oeste 0 1013.6 1.7 41
2018-10-14 23:00:00 18 8 Oeste 28 Oeste 0 1013 1.8 43
2018-10-14 22:00:00 18.5 8 Oeste 24 Oeste 0 1012.4 1.8 42
2018-10-14 21:00:00 19.1 7 Oeste 24 Oeste 0 1011.9 1.7 39
2018-10-14 20:00:00 19.9 8 Oeste 33 Oeste 0 1011.2 0.6 36
2018-10-14 19:00:00 21.9 17 Oeste 39 Oeste 0 1010.6 0.3 31
2018-10-14 18:00:00 23 19 Oeste 45 Noroeste 0 1010.2 0.2 31
2018-10-14 17:00:00 23 19 Oeste 45 Sudoeste 0 1010.6 0.1 29
2018-10-14 16:00:00 23.5 22 Oeste 55 Noroeste 0 1010.3 -0.5 30
2018-10-14 15:00:00 23.9 21 Oeste 50 Oeste 0 1010 -1.1 30
2018-10-14 14:00:00 23.3 22 Oeste 53 Oeste 0 1010.5 0.3 34
2018-10-14 13:00:00 22.2 24 Oeste 50 Oeste 0 1010.8 0.8 40
2018-10-14 12:00:00 20.8 21 Sudoeste 44 Noroeste 0 1011.1 1.7 50
2018-10-14 11:00:00 19.1 17 Sudoeste 33 Sudoeste 0 1010.2 0.3 72
2018-10-14 10:00:00 20.5 15 Oeste 33 Oeste 0 1010 -0.2 67
2018-10-14 09:00:00 20.9 9 Oeste 23 Noroeste 0 1009.4 -1.5 81
2018-10-14 08:00:00 21.3 6 Sudoeste 13 Sur 0 1009.9 -1.4 82
2018-10-14 07:00:00 19.9 2 Oeste 5 Nordeste 0 1010.2 -1.3 80
2018-10-14 06:00:00 20.1 0 Calma 6 Nordeste 0 1010.9 -1.1 80
2018-10-14 05:00:00 20 3 Norte 10 Nordeste 0 1011.3 -1.2 80
2018-10-14 04:00:00 20.3 5 Nordeste 13 Nordeste 0 1011.5 -1.5 79
2018-10-14 03:00:00 20.3 6 Nordeste 16 Nordeste 0 1012 -1.5 79
2018-10-14 02:00:00 20.2 9 Nordeste 15 Nordeste 0 1012.5 -1.6 81
2018-10-14 01:00:00 20.3 6 Nordeste 19 Nordeste 0 1013 -1 82
2018-10-14 00:00:00 20.6 7 Nordeste 15 Este 0 1013.5 -0.6 82
2018-10-13 23:00:00 20.8 6 Nordeste 15 Este 0 1014.1 0 81
2018-10-13 22:00:00 20.9 6 Nordeste 13 Este 0 1014 -0.3 80
2018-10-13 21:00:00 21.4 5 Nordeste 18 Este 0 1014.1 -0.5 80
2018-10-13 20:00:00 22 11 Este 19 Este 0 1014.1 -0.5 79
2018-10-13 19:00:00 22.9 10 Este 18 Este 0 1014.3 -1 74
2018-10-13 18:00:00 23.6 9 Este 20 Este 0 1014.6 -1.4 72
2018-10-13 17:00:00 24.4 12 Este 20 Este 0 1014.6 -2.1 68
2018-10-13 16:00:00 25.3 13 Este 21 Nordeste 0 1015.3 -2.2 66
2018-10-13 15:00:00 25.3 12 Este 22 Este 0 1016 -1.7 65
2018-10-13 14:00:00 24.9 14 Este 24 Este 0 1016.7 -1.4 65
2018-10-13 13:00:00 24.8 15 Este 26 Este 0 1017.5 -0.3 62
2018-10-13 12:00:00 24.6 14 Este 22 Este 0 1017.7 0.1 56
2018-10-13 11:00:00 24.1 12 Este 20 Nordeste 0 1018.1 1.1 54
2018-10-13 10:00:00 22.2 8 Nordeste 14 Este 0 1017.8 0.5 61
2018-10-13 09:00:00 20.4 7 Nordeste 16 Nordeste 0 1017.6 -0.2 64
2018-10-13 08:00:00 20.4 7 Nordeste 19 Nordeste 0 1017 -1.3 59
2018-10-13 07:00:00 19.6 8 Nordeste 21 Nordeste 0 1017.3 -1.4 70
2018-10-13 06:00:00 19.2 10 Nordeste 18 Nordeste 0 1017.8 -1.3 76
2018-10-13 05:00:00 19 6 Nordeste 13 Nordeste 0 1018.3 -0.9 76
2018-10-13 04:00:00 19.2 7 Nordeste 14 Nordeste 0 1018.7 -0.9 76
2018-10-13 03:00:00 19.2 5 Nordeste 12 Nordeste 0 1019.1 -1 77
2018-10-13 02:00:00 19.2 4 Nordeste 9 Nordeste 0 1019.2 -1.1 78
2018-10-13 01:00:00 19.2 2 Noroeste 7 Nordeste 0 1019.6 -0.8 78
2018-10-13 00:00:00 19.4 0 Calma 5 Oeste 0 1020.1 -0.5 78
2018-10-12 23:00:00 19.8 2 Este 5 Oeste 0 1020.3 0 78
2018-10-12 22:00:00 20.5 3 Oeste 5 Oeste 0 1020.4 0.5 78
2018-10-12 21:00:00 21.5 2 Oeste 9 Sudoeste 0 1020.6 0.8 75
2018-10-12 20:00:00 22.8 6 Sudoeste 10 Sudoeste 0 1020.3 0.2 70
2018-10-12 19:00:00 24.9 6 Sudoeste 9 Oeste 0 1019.9 -0.6 62
2018-10-12 18:00:00 24.3 5 Sudeste 9 Sudeste 0 1019.8 -1.1 62
2018-10-12 17:00:00 25.4 5 Sudeste 9 Sur 0 1020.1 -1.3 58
2018-10-12 16:00:00 26.4 5 Sur 11 Sur 0 1020.5 -0.9 53
2018-10-12 15:00:00 27.4 5 Sur 11 Sudoeste 0 1020.9 -0.5 50
2018-10-12 14:00:00 27 5 Sur 11 Sur 0 1021.4 -0.1 52
2018-10-12 13:00:00 25.6 4 Sudeste 9 Sudeste 0 1021.4 0.6 58
2018-10-12 12:00:00 24.8 5 Este 9 Sudeste 0 1021.4 1.4 57
2018-10-12 11:00:00 22.9 3 Sudeste 7 Sudeste 0 1021.5 2.2 63
2018-10-12 10:00:00 20.4 4 Este 6 Este 0 1020.8 1.9 70
2018-10-12 09:00:00 18.2 3 Noroeste 10 Norte 0 1020 1.3 76
2018-10-12 08:00:00 17.6 3 Noroeste 7 Noroeste 0 1019.3 1 75
2018-10-12 07:00:00 18 5 Noroeste 8 Noroeste 0 1018.9 0.4 76
2018-10-12 06:00:00 17.6 2 Nordeste 5 Noroeste 0 1018.7 0.2 74
2018-10-12 05:00:00 17.9 2 Norte 5 Noroeste 0 1018.3 -0.1 73
2018-10-12 04:00:00 18 4 Nordeste 9 Nordeste 0 1018.5 -0.1 72
2018-10-12 03:00:00 18.3 2 Norte 7 Nordeste 0 1018.5 0.1 72
2018-10-12 02:00:00 19 3 Oeste 8 Oeste 0 1018.4 0.5 69
2018-10-12 01:00:00 20.3 2 Oeste 23 Oeste 0 1018.6 1.1 65
2018-10-12 00:00:00 21.4 10 Oeste 20 Oeste 0 1018.4 1.4 65
2018-10-11 23:00:00 21.7 7 Oeste 20 Oeste 0 1017.9 1.6 64
2018-10-11 22:00:00 22.1 8 Oeste 26 Oeste 0 1017.5 1.9 62
2018-10-11 21:00:00 22.5 13 Oeste 26 Oeste 0 1017 2.2 61
2018-10-11 20:00:00 23.2 13 Oeste 32 Oeste 0 1016.3 1.6 56
2018-10-11 19:00:00 25.3 14 Oeste 33 Sudoeste 0 1015.6 1.3 48
2018-10-11 18:00:00 27 16 Sudoeste 31 Sudoeste 0 1014.8 0.5 43
2018-10-11 17:00:00 26 13 Oeste 36 Oeste 0 1014.7 -0.1 44
2018-10-11 16:00:00 27 19 Sudoeste 38 Sudoeste 0 1014.3 -0.9 45
2018-10-11 15:00:00 25.6 21 Oeste 42 Oeste 0 1014.3 -0.7 52
2018-10-11 14:00:00 23.1 12 Sudoeste 22 Sudoeste 0 1014.8 0.6 82
2018-10-11 13:00:00 21.5 3 Sudoeste 9 Sur 0 1015.2 2 86
2018-10-11 12:00:00 20.4 5 Sudoeste 8 Sudoeste -- 1015 3.1 86
2018-10-11 11:00:00 19.8 4 Oeste 13 Oeste -- 1014.2 3.5 85
2018-10-11 10:00:00 19.8 4 Nordeste 10 Nordeste -- 1013.2 2.4 84
2018-10-11 09:00:00 20.4 2 Noroeste 10 Nordeste -- 1011.9 1.7 83
2018-10-11 08:00:00 20.7 6 Nordeste 13 Este -- 1010.7 0.4 82
2018-10-11 07:00:00 21 6 Nordeste 12 Nordeste -- 1010.8 0.7 79
2018-10-11 06:00:00 21 7 Nordeste 14 Nordeste -- 1010.2 -0.6 77
2018-10-11 05:00:00 20.9 5 Nordeste 13 Nordeste -- 1010.3 -0.6 77
2018-10-11 04:00:00 20.8 7 Nordeste 15 Nordeste -- 1010.1 -0.7 78
2018-10-11 03:00:00 20.8 7 Nordeste 14 Nordeste -- 1010.8 0.5 80
2018-10-11 02:00:00 20.3 6 Nordeste 13 Nordeste -- 1010.9 1.2 81
2018-10-11 01:00:00 20.1 6 Nordeste 11 Nordeste -- 1010.8 1.4 82
2018-10-11 00:00:00 20.3 6 Nordeste 14 Nordeste -- 1010.3 1.1 82
2018-10-10 23:00:00 20.8 6 Nordeste 13 Nordeste -- 1009.7 1 82
2018-10-10 22:00:00 20.5 4 Nordeste 9 Este -- 1009.4 1.4 81
2018-10-10 21:00:00 20.7 0 Calma 5 Sudeste -- 1009.2 1.7 79
2018-10-10 20:00:00 21.4 2 Sudeste 14 Este -- 1008.7 1.4 78
2018-10-10 19:00:00 22.1 9 Este 22 Este -- 1008 0.6 79
2018-10-10 18:00:00 22.9 13 Este 25 Este -- 1007.5 0.3 75
2018-10-10 17:00:00 22.4 14 Este -- -- -- 1007.3 -0.4 75
2018-10-10 16:00:00 22.7 12 Este 19 Sudeste -- 1007.4 -0.3 73
2018-10-10 15:00:00 23.3 8 Este 14 Este -- 1007.2 -0.5 68
2018-10-10 14:00:00 24.3 9 Sudeste 19 Este -- 1007.7 0 66
2018-10-10 13:00:00 22.7 9 Este 23 Nordeste -- 1007.7 0.3 72
2018-10-10 12:00:00 22.3 13 Este 24 Este -- 1007.7 0.6 75
2018-10-10 11:00:00 21.1 12 Este 23 Este -- 1007.7 1.1 83
2018-10-10 10:00:00 19.9 6 Nordeste 13 Nordeste -- 1007.4 0.9 87
2018-10-10 09:00:00 18.1 5 Nordeste 19 Nordeste -- 1007.1 0.6 87
2018-10-10 08:00:00 17.2 10 Nordeste 20 Nordeste -- 1006.6 0.8 87
2018-10-10 07:00:00 17.7 7 Nordeste 14 Nordeste -- 1006.5 -0.1 87
2018-10-10 06:00:00 18.2 6 Nordeste 18 Este -- 1006.5 -0.5 87
2018-10-10 05:00:00 18.3 11 Oeste 22 Nordeste -- 1005.8 -2 87
2018-10-10 04:00:00 19.2 10 Nordeste 29 Este -- 1006.6 -0.7 86
2018-10-10 03:00:00 17.2 22 Este 51 Este -- 1007 -1.1 86
2018-10-10 02:00:00 17.8 10 Sudeste 35 Sudeste -- 1007.8 0 82
2018-10-10 01:00:00 21 19 Sudeste 35 Sudeste -- 1007.3 -0.9 83
2018-10-10 00:00:00 20.8 19 Este 34 Este -- 1008.1 -0.3 84
2018-10-09 23:00:00 20.8 20 Sudeste 38 Sudeste -- 1007.8 -0.3 82
2018-10-09 22:00:00 21.2 11 Sudeste 24 Sudeste -- 1008.2 0.4 78
2018-10-09 21:00:00 21.3 14 Este 27 Este -- 1008.4 0.5 77
2018-10-09 20:00:00 21.4 15 Este 31 Este -- 1008.1 0.1 75
2018-10-09 19:00:00 21.5 18 Este 33 Este -- 1007.8 -0.6 73
2018-10-09 18:00:00 21.9 16 Este 33 Este -- 1007.9 -0.7 73
2018-10-09 17:00:00 23 20 Este 31 Este -- 1008 -1.2 68
2018-10-09 16:00:00 22.5 17 Este 39 Nordeste -- 1008.4 -1.2 71
2018-10-09 15:00:00 21.6 16 Nordeste 36 Este 0 1008.6 -1.3 74
2018-10-09 14:00:00 22.5 13 Este 28 Este 0 1009.2 -0.5 71
2018-10-09 13:00:00 23 17 Este 27 Este 0 1009.6 0.1 67
2018-10-09 12:00:00 23.4 14 Este 27 Este 0 1009.9 0.9 72
2018-10-09 11:00:00 22 16 Este 37 Este 0 1009.7 1 75
2018-10-09 10:00:00 21 18 Nordeste 40 Este 0 1009.5 0.7 74
2018-10-09 09:00:00 20.4 25 Este 40 Este 0 1009 0.2 78
2018-10-09 08:00:00 20.1 6 Nordeste 17 Nordeste 0 1008.7 -0.3 77
2018-10-09 07:00:00 20.1 9 Nordeste 20 Nordeste 0 1008.8 -1 79
2018-10-09 06:00:00 20.2 7 Nordeste 14 Nordeste 0 1008.8 -1.9 81
2018-10-09 05:00:00 20.5 7 Nordeste 13 Nordeste 0 1009 -2 82
2018-10-09 04:00:00 21.1 5 Nordeste 19 Este 0 1009.8 -1.5 82
2018-10-09 03:00:00 21.5 10 Este 22 Este 0 1010.7 -1.1 82
2018-10-09 02:00:00 21.4 12 Este 23 Este 0 1011 -0.9 82
2018-10-09 01:00:00 21.3 10 Este 20 Este 0 1011.3 -0.5 83
2018-10-09 00:00:00 21 5 Nordeste 17 Este 0 1011.8 0.1 82
2018-10-08 23:00:00 21 5 Nordeste 14 Nordeste 0 1011.9 0.2 82
2018-10-08 22:00:00 21.4 8 Este 13 Este 0 1011.8 0 81
2018-10-08 21:00:00 21.5 6 Este 12 Este 0 1011.7 -0.4 80
2018-10-08 20:00:00 22.2 4 Este 12 Este 0 1011.7 -0.8 77
2018-10-08 19:00:00 23.4 8 Este 13 Este 0 1011.8 -0.9 72
2018-10-08 18:00:00 24.5 8 Este 15 Sudeste 0 1012.1 -1 68
2018-10-08 17:00:00 25.6 6 Sudeste 12 Sudeste 0 1012.5 -1.4 64
2018-10-08 16:00:00 26.3 7 Sudeste 13 Sudeste 0 1012.7 -1.6 62
2018-10-08 15:00:00 26.9 8 Sudeste 16 Este 0 1013.1 -1.3 59
2018-10-08 14:00:00 26.7 10 Sudeste 16 Sudeste 0 1013.9 -0.4 60
2018-10-08 13:00:00 26.5 9 Sudeste 18 Este 0 1014.3 0.4 61
2018-10-08 12:00:00 25.9 12 Este 21 Este 0 1014.4 1.1 65
2018-10-08 11:00:00 24.5 11 Este 20 Este 0 1014.3 1 62
2018-10-08 10:00:00 23.1 5 Este 15 Nordeste 0 1013.9 0.9 66
2018-10-08 09:00:00 21.5 8 Nordeste 18 Nordeste 0 1013.3 0.5 69
2018-10-08 08:00:00 21.6 6 Nordeste 17 Nordeste 0 1013.3 0.8 67
2018-10-08 07:00:00 22.1 7 Nordeste 15 Este 0 1013 0.6 68
2018-10-08 06:00:00 21.4 5 Nordeste 17 Nordeste 0 1012.8 0.3 65
2018-10-08 05:00:00 20.9 4 Nordeste 13 Nordeste 0 1012.5 -0.1 48
2018-10-08 04:00:00 20.7 3 Noroeste 8 Sudoeste 0 1012.4 -0.4 36
2018-10-08 03:00:00 21.9 4 Oeste 14 Oeste 0 1012.5 -0.5 37
2018-10-08 02:00:00 23.3 2 Este 27 Oeste 0 1012.6 -0.4 29
2018-10-08 01:00:00 23.9 11 Oeste 24 Oeste 0 1012.8 -0.4 27
2018-10-08 00:00:00 24.7 13 Oeste 33 Sudoeste 0 1013 -0.1 25
2018-10-07 23:00:00 25.3 17 Sudoeste 33 Oeste 0 1013 0.4 31
2018-10-07 22:00:00 27.2 13 Oeste 26 Oeste 0 1013.2 1.2 20
2018-10-07 21:00:00 26.8 12 Oeste 24 Oeste 0 1013.1 1.3 24
2018-10-07 20:00:00 28.7 13 Oeste 29 Oeste 0 1012.6 0.5 23
2018-10-07 19:00:00 31.1 18 Oeste 34 Sudoeste 0 1012 -0.3 21
2018-10-07 18:00:00 33.1 18 Oeste 37 Oeste 0 1011.8 -0.8 19
2018-10-07 17:00:00 33.6 18 Oeste 36 Oeste 0 1012.1 -1 18
2018-10-07 16:00:00 33.5 20 Oeste 42 Sudoeste 0 1012.3 -1.7 24
2018-10-07 15:00:00 34 22 Oeste 40 Sudoeste 0 1012.6 -1.9 19
2018-10-07 14:00:00 30.7 16 Sudoeste 33 Sudoeste 0 1013.1 -1.4 27
2018-10-07 13:00:00 27.4 7 Este 13 Este 0 1014 -0.4 50
2018-10-07 12:00:00 26.3 6 Sudeste 11 Sudeste 0 1014.5 0.6 55
2018-10-07 11:00:00 24.2 4 Este 7 Este 0 1014.5 1 60
2018-10-07 10:00:00 21 2 Sudoeste 10 Nordeste 0 1014.4 0.8 68
2018-10-07 09:00:00 18.3 3 Norte 9 Nordeste 0 1013.9 0.2 69
2018-10-07 08:00:00 17.9 3 Noroeste 10 Noroeste 0 1013.5 -0.3 72
2018-10-07 07:00:00 18.2 2 Noroeste 10 Nordeste 0 1013.6 -0.8 73
2018-10-07 06:00:00 18.2 4 Norte 8 Nordeste 0 1013.7 -1.1 78
2018-10-07 05:00:00 18.5 3 Norte 7 Noroeste 0 1013.8 -1.8 79
2018-10-07 04:00:00 18.7 3 Norte 8 Este 0 1014.4 -1.3 79
2018-10-07 03:00:00 19.2 2 Oeste 15 Oeste 0 1014.8 -1 78
2018-10-07 02:00:00 19.5 6 Oeste 13 Oeste 0 1015.6 -0.5 80
2018-10-07 01:00:00 19.4 2 Noroeste 8 Nordeste 0 1015.7 -0.3 80
2018-10-07 00:00:00 19.8 0 Calma 8 Noroeste 0 1015.8 -0.1 77
2018-10-06 23:00:00 20.2 3 Oeste 7 Noroeste 0 1016.1 0.6 78
2018-10-06 22:00:00 20.6 2 Noroeste 7 Oeste 0 1016 0.6 78
2018-10-06 21:00:00 21.1 5 Sudoeste 7 Sudoeste 0 1015.9 0.6 75
2018-10-06 20:00:00 22.2 3 Sur 8 Sur 0 1015.5 -0.1 70
2018-10-06 19:00:00 24 5 Sur 9 Sudeste 0 1015.4 -0.7 64
2018-10-06 18:00:00 24.7 4 Sur 9 Sudeste 0 1015.3 -0.9 62
2018-10-06 17:00:00 25.4 6 Sur 11 Sudeste 0 1015.6 -1.2 59
2018-10-06 16:00:00 26.6 5 Sudeste 14 Sudeste 0 1016.1 -0.9 55
2018-10-06 15:00:00 26.4 9 Sudeste 21 Sudeste 0 1016.2 -1.2 56
2018-10-06 14:00:00 26.2 12 Este 21 Este 0 1016.8 -0.5 59
2018-10-06 13:00:00 25.2 13 Este 21 Este 0 1017 0.1 61
2018-10-06 12:00:00 24.7 12 Este 25 Este 0 1017.4 1.1 62
2018-10-06 11:00:00 24 17 Este 26 Nordeste 0 1017.3 1.4 61
2018-10-06 10:00:00 22.4 9 Nordeste 18 Este 0 1016.9 1 61
2018-10-06 09:00:00 20.2 8 Nordeste 17 Nordeste 0 1016.3 0.9 66
2018-10-06 08:00:00 20.4 9 Nordeste 19 Nordeste 0 1015.9 0.6 65
2018-10-06 07:00:00 20.3 6 Nordeste 19 Nordeste 0 1015.9 0.2 60
2018-10-06 06:00:00 20.3 10 Nordeste 18 Nordeste 0 1015.4 -0.7 55
2018-10-06 05:00:00 20.1 9 Nordeste 20 Nordeste 0 1015.3 -0.9 54
2018-10-06 04:00:00 20.1 10 Nordeste 19 Nordeste 0 1015.7 -0.5 50
2018-10-06 03:00:00 19.8 9 Nordeste 15 Norte 0 1016.1 -0.4 48
2018-10-06 02:00:00 19.6 7 Nordeste 12 Nordeste 0 1016.2 -0.2 44
2018-10-06 01:00:00 19.5 7 Nordeste 13 Nordeste 0 1016.2 0 51
2018-10-06 00:00:00 19.9 5 Nordeste 15 Nordeste 0 1016.5 1 59
2018-10-05 23:00:00 20.1 8 Nordeste 14 Este 0 1016.4 1.1 62
2018-10-05 22:00:00 20.5 5 Nordeste 12 Nordeste 0 1016.2 1 64
2018-10-05 21:00:00 21.3 6 Nordeste 20 Nordeste 0 1015.5 0.3 70
2018-10-05 20:00:00 22.2 9 Nordeste 28 Este 0 1015.3 -0.1 71
2018-10-05 19:00:00 23.3 18 Este 31 Este 0 1015.2 -0.5 69
2018-10-05 18:00:00 24 18 Este 32 Este 0 1015.2 -0.9 66
2018-10-05 17:00:00 24.6 18 Este 31 Este 0 1015.4 -1.3 64
2018-10-05 16:00:00 24.9 18 Este 32 Este 0 1015.7 -1.3 62
2018-10-05 15:00:00 25 17 Este 36 Este 0 1016.1 -1.3 61
2018-10-05 14:00:00 25 18 Este 35 Este 0 1016.7 -0.9 60
2018-10-05 13:00:00 24.9 19 Este 33 Este 0 1017 -0.4 59
2018-10-05 12:00:00 24.4 20 Este 32 Este 0 1017.4 0.4 60
2018-10-05 11:00:00 24.1 17 Este 30 Este 0 1017.6 1 60
2018-10-05 10:00:00 22.8 13 Nordeste 25 Nordeste 0 1017.4 1 58
2018-10-05 09:00:00 20.7 11 Nordeste 21 Nordeste 0 1017 0.9 56
2018-10-05 08:00:00 20.4 9 Nordeste 21 Nordeste 0 1016.6 0.2 50
2018-10-05 07:00:00 20.6 10 Nordeste 22 Nordeste 0 1016.4 -0.5 43
2018-10-05 06:00:00 20.7 11 Nordeste 22 Nordeste 0 1016.1 -1.4 40
2018-10-05 05:00:00 20.6 11 Nordeste 19 Nordeste 0 1016.4 -1.3 37
2018-10-05 04:00:00 20.1 10 Nordeste 19 Nordeste 0 1016.9 -1.2 37
2018-10-05 03:00:00 19.7 9 Nordeste 15 Nordeste 0 1017.5 -0.6 39
2018-10-05 02:00:00 19.3 4 Nordeste 13 Nordeste 0 1017.7 -0.2 44
2018-10-05 01:00:00 19.1 5 Nordeste 9 Nordeste 0 1018.1 0.4 45
2018-10-05 00:00:00 19.7 5 Norte 14 Nordeste 0 1018.1 0.9 49
2018-10-04 23:00:00 20.3 8 Nordeste 19 Nordeste 0 1017.9 0.7 54
2018-10-04 22:00:00 20.7 6 Nordeste 12 Este 0 1017.7 0.5 55
2018-10-04 21:00:00 21.4 6 Nordeste 24 Este 0 1017.2 -0.1 60
2018-10-04 20:00:00 22.8 14 Este 26 Este 0 1017.2 -0.6 63
2018-10-04 19:00:00 23.9 16 Este 29 Este 0 1017.2 -0.9 59
2018-10-04 18:00:00 24.5 18 Este 28 Este 0 1017.3 -1.4 59
2018-10-04 17:00:00 25.1 16 Este 30 Este 0 1017.8 -1.5 57
2018-10-04 16:00:00 25.2 17 Este 29 Este 0 1018.1 -1.5 59
2018-10-04 15:00:00 24.9 17 Este 33 Este 0 1018.7 -1.3 62
2018-10-04 14:00:00 24.7 17 Este 28 Este 0 1019.3 -0.5 62
2018-10-04 13:00:00 24.6 16 Este 27 Este 0 1019.6 0.3 61
2018-10-04 12:00:00 24.7 14 Este 26 Este 0 1020 0.9 62
2018-10-04 11:00:00 24 16 Este 27 Nordeste 0 1019.8 1.1 55
2018-10-04 10:00:00 22.4 9 Nordeste 17 Nordeste 0 1019.3 0.9 50
2018-10-04 09:00:00 20.1 9 Nordeste 19 Nordeste 0 1019.1 0.8 44
2018-10-04 08:00:00 19.8 9 Nordeste 19 Nordeste 0 1018.7 0.1 38
2018-10-04 07:00:00 19.8 8 Nordeste 16 Nordeste 0 1018.4 -0.7 34
2018-10-04 06:00:00 20 7 Nordeste 16 Nordeste 0 1018.3 -1.5 31
2018-10-04 05:00:00 20.2 8 Nordeste 18 Nordeste 0 1018.6 -1.5 31
2018-10-04 04:00:00 20.2 8 Nordeste 15 Nordeste 0 1019.1 -1.2 35
2018-10-04 03:00:00 20 8 Nordeste 15 Nordeste 0 1019.8 -0.5 43
2018-10-04 02:00:00 20.3 8 Nordeste 19 Nordeste 0 1020.1 -0.3 49
2018-10-04 01:00:00 20 7 Nordeste 14 Este 0 1020.3 0.1 58
2018-10-04 00:00:00 20.3 6 Nordeste 16 Nordeste 0 1020.3 0.3 64
2018-10-03 23:00:00 20.6 8 Nordeste 16 Nordeste 0 1020.4 0.8 69
2018-10-03 22:00:00 21.1 7 Nordeste 15 Nordeste 0 1020.2 0.6 71
2018-10-03 21:00:00 21.6 7 Nordeste 26 Este 0 1020 0.5 70
2018-10-03 20:00:00 22.3 15 Este 25 Este 0 1019.6 -0.1 68
2018-10-03 19:00:00 23.3 17 Este 29 Este 0 1019.6 -0.4 63
2018-10-03 18:00:00 23.9 19 Este 34 Este 0 1019.5 -1.2 64
2018-10-03 17:00:00 24.2 22 Este 34 Este 0 1019.7 -1.8 61
2018-10-03 16:00:00 24.6 20 Este 36 Este 0 1020 -1.4 61
2018-10-03 15:00:00 24.7 20 Este 34 Este 0 1020.7 -0.6 62
2018-10-03 14:00:00 24.7 20 Este 37 Este 0 1021.5 0.6 63
2018-10-03 13:00:00 24.9 23 Este 37 Este 0 1021.4 1 62
2018-10-03 12:00:00 24.5 20 Este 32 Este 0 1021.3 1.5 62
2018-10-03 11:00:00 24.1 18 Este 28 Este 0 1020.9 1.4 63
2018-10-03 10:00:00 22.7 8 Nordeste 21 Nordeste 0 1020.4 0.8 66
2018-10-03 09:00:00 20.7 9 Nordeste 18 Nordeste 0 1019.8 0.2 68
2018-10-03 08:00:00 20.4 8 Nordeste 19 Nordeste 0 1019.5 -0.5 70
2018-10-03 07:00:00 20.8 10 Nordeste 18 Nordeste 0 1019.6 -0.8 73
2018-10-03 06:00:00 21 9 Nordeste 19 Nordeste 0 1019.6 -1 73
2018-10-03 05:00:00 21.3 9 Nordeste 18 Nordeste 0 1020 -0.7 75
2018-10-03 04:00:00 21.4 8 Nordeste 17 Nordeste 0 1020.4 -0.4 75
2018-10-03 03:00:00 21.6 8 Nordeste 21 Este 0 1020.6 0.1 74
2018-10-03 02:00:00 22.3 8 Nordeste 19 Nordeste 0 1020.7 0.6 74
2018-10-03 01:00:00 22 8 Nordeste 21 Nordeste 0 1020.8 1.1 76
2018-10-03 00:00:00 21.6 7 Nordeste 16 Este 0 1020.5 1.5 80
2018-10-02 23:00:00 21.8 5 Nordeste 14 Nordeste 0 1020.1 1.6 79
2018-10-02 22:00:00 22.1 5 Nordeste 17 Este 0 1019.7 1.3 78
2018-10-02 21:00:00 22.9 10 Este 17 Este 0 1019 0.5 76
2018-10-02 20:00:00 23.2 11 Este 20 Este 0 1018.5 0.1 71
2018-10-02 19:00:00 24 11 Este 27 Este 0 1018.4 -0.2 70
2018-10-02 18:00:00 24.5 14 Este 24 Este 0 1018.5 -0.1 68
2018-10-02 17:00:00 25.4 15 Este 23 Este 0 1018.4 -0.5 67
2018-10-02 16:00:00 25.2 14 Este 27 Este 0 1018.6 -0.6 67
2018-10-02 15:00:00 25.2 16 Este 32 Este 0 1018.6 -0.8 67
2018-10-02 14:00:00 25.4 21 Este 31 Este 0 1018.9 -0.1 66
2018-10-02 13:00:00 24.8 18 Este 32 Este 0 1019.2 0.9 68
2018-10-02 12:00:00 25.8 19 Este 28 Este 0 1019.4 1.9 64
2018-10-02 11:00:00 25 15 Este 29 Este 0 1019 2.2 67
2018-10-02 10:00:00 22.3 7 Nordeste 19 Nordeste 0 1018.3 2 80
2018-10-02 09:00:00 21 2 Norte 5 Noroeste 0 1017.5 1.8 82
2018-10-02 08:00:00 20.8 3 Noroeste 6 Noroeste 0 1016.8 1.1 81
2018-10-02 07:00:00 20.5 0 Calma 6 Norte 0 1016.3 0.4 79
2018-10-02 06:00:00 20.9 3 Noroeste 8 Noroeste 0 1015.7 -0.1 79
2018-10-02 05:00:00 21.1 3 Noroeste 8 Norte 0 1015.7 0 79
2018-10-02 04:00:00 21.3 4 Norte 10 Nordeste 0 1015.9 0.1 77
2018-10-02 03:00:00 21.4 3 Nordeste 8 Noroeste 0 1015.8 0.3 74
2018-10-02 02:00:00 21.5 2 Norte 9 Nordeste 0 1015.7 0.1 72
2018-10-02 01:00:00 21 3 Norte 7 Nordeste 0 1015.8 0.6 72
2018-10-02 00:00:00 22.1 0 Calma 9 Noroeste 0 1015.5 0.8 72
2018-10-01 23:00:00 22.2 4 Noroeste 6 Noroeste 0 1015.6 1.5 72
2018-10-01 22:00:00 23.3 4 Norte 18 Nordeste 0 1015.2 1.3 71
2018-10-01 21:00:00 23.5 6 Nordeste 17 Nordeste 0 1014.7 0.8 60
2018-10-01 20:00:00 24.4 3 Noroeste 17 Este 0 1014.1 -0.5 61
2018-10-01 19:00:00 25.1 6 Oeste 14 Sudeste 0 1013.9 -0.4 59
2018-10-01 18:00:00 26.2 5 Norte 23 Noroeste 0 1013.9 -0.5 46
2018-10-01 17:00:00 24.6 8 Oeste 22 Noroeste 0 1014.6 -0.7 54
2018-10-01 16:00:00 26 5 Nordeste 18 Este 0 1014.3 -1.6 60
2018-10-01 15:00:00 27.6 9 Este 17 Este 0 1014.4 -2 59
2018-10-01 14:00:00 26.4 10 Este 16 Este 0 1015.3 -1.2 61
2018-10-01 13:00:00 26.7 7 Sudeste 12 Sudeste 0 1015.9 -0.1 60
2018-10-01 12:00:00 26.3 5 Sudeste 9 Sudeste 0 1016.4 0.7 64
2018-10-01 11:00:00 24.7 5 Sudeste 9 Sudeste 0 1016.5 1.2 70
2018-10-01 10:00:00 22.3 2 Este 7 Nordeste 0 1016 0.9 79
2018-10-01 09:00:00 21.3 5 Nordeste 12 Nordeste 0 1015.7 0.3 81
2018-10-01 08:00:00 21 6 Nordeste 12 Nordeste 0 1015.3 -0.7 81
2018-10-01 07:00:00 21.2 6 Nordeste 11 Nordeste 0 1015.1 -1.7 80
2018-10-01 06:00:00 21.5 3 Nordeste 18 Sudoeste 0 1015.4 -2 78
2018-10-01 05:00:00 21.9 6 Oeste 12 Oeste 0 1016 -1.4 78
2018-10-01 04:00:00 22 6 Oeste 10 Oeste 0 1016.8 -0.1 78
2018-10-01 03:00:00 22.2 4 Sudeste 13 Este 0 1017.4 0.6 79
2018-10-01 02:00:00 21.8 5 Nordeste 10 Este 0 1017.4 0.7 78
2018-10-01 01:00:00 21.5 5 Nordeste 8 Nordeste 0 1016.9 -0.2 78
2018-10-01 00:00:00 21.5 2 Oeste 9 Sudoeste 0 1016.8 0.1 77
2018-09-30 23:00:00 21.9 3 Sudoeste 7 Noroeste 0 1016.7 0.4 75
2018-09-30 22:00:00 22.5 4 Sudoeste 9 Sudoeste 0 1017.1 1.4 74
2018-09-30 21:00:00 22.9 5 Sudoeste 10 Sudoeste 0 1016.7 0.8 72
2018-09-30 20:00:00 23.6 6 Sudoeste 12 Sur 0 1016.3 0.1 69
2018-09-30 19:00:00 25.1 4 Sur 13 Sudoeste 0 1015.7 -0.8 64
2018-09-30 18:00:00 24.5 9 Sudoeste 16 Sur 0 1015.9 -1.2 66
2018-09-30 17:00:00 24.7 8 Sudoeste 13 Sudoeste 0 1016.2 -1.6 63
2018-09-30 16:00:00 25 5 Sudeste 9 Sudeste 0 1016.5 -1.5 61
2018-09-30 15:00:00 25.4 4 Sur 14 Sudeste 0 1017.1 -0.8 60
2018-09-30 14:00:00 26.6 8 Sudeste 16 Sudeste 0 1017.8 -0.1 55
2018-09-30 13:00:00 26.6 9 Sudeste 18 Sudeste 0 1018 0.9 57
2018-09-30 12:00:00 26.1 9 Sudeste 16 Este 0 1017.9 1.2 62
2018-09-30 11:00:00 24.2 9 Este 17 Este 0 1017.9 1.3 65
2018-09-30 10:00:00 22.5 8 Este 14 Este 0 1017.1 0.6 71
2018-09-30 09:00:00 20.1 4 Norte 10 Nordeste 0 1016.7 0.6 76
2018-09-30 08:00:00 20 2 Noroeste 8 Nordeste 0 1016.6 1.1 76
2018-09-30 07:00:00 20 4 Norte 11 Nordeste 0 1016.5 0.9 76
2018-09-30 06:00:00 20.2 6 Nordeste 13 Nordeste 0 1016.1 0.1 75
2018-09-30 05:00:00 20.3 7 Nordeste 15 Nordeste 0 1015.5 -0.5 74
2018-09-30 04:00:00 20.5 8 Nordeste 16 Nordeste 0 1015.6 -0.1 74
2018-09-30 03:00:00 20.7 7 Nordeste 15 Nordeste 0 1016 0.1 74
2018-09-30 02:00:00 20.5 7 Nordeste 18 Nordeste 0 1016 0 75
2018-09-30 01:00:00 20.7 6 Nordeste 17 Nordeste 0 1015.7 0.4 75
2018-09-30 00:00:00 20.7 7 Nordeste 13 Nordeste 0 1015.9 0.7 77
2018-09-29 23:00:00 20.9 4 Nordeste 9 Este 0 1016 1.4 77
2018-09-29 22:00:00 21.3 5 Nordeste 9 Este 0 1015.3 1 76
2018-09-29 21:00:00 21.9 4 Este 6 Este 0 1015.2 0.8 73
2018-09-29 20:00:00 23.2 4 Sudeste 8 Sudeste 0 1014.6 -0.2 67
2018-09-29 19:00:00 24.8 5 Sudeste 15 Sudeste 0 1014.3 -1 61
2018-09-29 18:00:00 25.7 9 Sudeste 14 Sudeste 0 1014.4 -1.2 58
2018-09-29 17:00:00 26.3 7 Sudeste 14 Sudeste 0 1014.8 -1.4 57
2018-09-29 16:00:00 27 8 Sudeste 16 Sudeste 0 1015.3 -1.2 54
2018-09-29 15:00:00 27.1 10 Sudeste 18 Sudeste 0 1015.6 -1.4 51
2018-09-29 14:00:00 27.1 12 Sudeste 19 Sudeste 0 1016.2 -0.8 53
2018-09-29 13:00:00 26.4 12 Este 20 Este 0 1016.5 -0.2 58
2018-09-29 12:00:00 25.4 14 Este 23 Este 0 1017 0.7 55
2018-09-29 11:00:00 24.2 15 Este 23 Este 0 1017 0.8 62
2018-09-29 10:00:00 23.5 9 Nordeste 19 Nordeste 0 1016.7 0.8 63
2018-09-29 09:00:00 21.2 9 Nordeste 16 Nordeste 0 1016.3 0.5 64
2018-09-29 08:00:00 20.9 9 Nordeste 19 Nordeste 0 1016.2 0.3 61
2018-09-29 07:00:00 21.1 7 Nordeste 17 Nordeste 0 1015.9 -0.6 60
2018-09-29 06:00:00 21.3 8 Nordeste 18 Nordeste 0 1015.8 -0.8 59
2018-09-29 05:00:00 21.6 8 Nordeste 18 Nordeste 0 1015.9 -1 58
2018-09-29 04:00:00 21.8 8 Nordeste 18 Nordeste 0 1016.5 -0.6 56
2018-09-29 03:00:00 22.4 8 Nordeste 21 Nordeste 0 1016.6 -0.7 55
2018-09-29 02:00:00 22.5 9 Nordeste 22 Nordeste 0 1016.9 -0.3 57
2018-09-29 01:00:00 21.6 8 Nordeste 18 Norte 0 1017.1 -0.3 61
2018-09-29 00:00:00 21.6 9 Nordeste 18 Nordeste 0 1017.3 0.6 64
2018-09-28 23:00:00 21.6 7 Nordeste 17 Nordeste 0 1017.2 0.6 68
2018-09-28 22:00:00 21.8 7 Nordeste 18 Este 0 1017.4 0.6 68
2018-09-28 21:00:00 22.4 13 Este 21 Este 0 1016.7 -0.2 71
2018-09-28 20:00:00 22.9 14 Este 23 Este 0 1016.6 -0.8 71
2018-09-28 19:00:00 23.4 13 Este 21 Este 0 1016.8 -0.8 68
2018-09-28 18:00:00 24.2 14 Este 24 Este 0 1016.9 -1.4 63
2018-09-28 17:00:00 25.3 15 Este 26 Este 0 1017.4 -1.7 62
2018-09-28 16:00:00 25.4 16 Este 28 Este 0 1017.6 -1.9 62
2018-09-28 15:00:00 25.5 16 Este 28 Este 0 1018.3 -1.9 61
2018-09-28 14:00:00 25.4 19 Este 33 Este 0 1019.1 -1.1 61
2018-09-28 13:00:00 25.5 19 Este 30 Este 0 1019.5 -0.5 63
2018-09-28 12:00:00 25.1 19 Este 28 Este 0 1020.2 0.7 65
2018-09-28 11:00:00 24.5 17 Este 28 Este 0 1020.2 0.8 68
2018-09-28 10:00:00 23 15 Este 27 Este 0 1020 0.7 71
2018-09-28 09:00:00 22.1 8 Nordeste 20 Nordeste 0 1019.5 0.2 73
2018-09-28 08:00:00 21.8 8 Nordeste 19 Este 0 1019.4 -0.1 73
2018-09-28 07:00:00 21.7 8 Nordeste 21 Nordeste 0 1019.3 -1.1 75
2018-09-28 06:00:00 21.8 8 Nordeste 21 Nordeste 0 1019.3 -1.9 75
2018-09-28 05:00:00 22.1 8 Nordeste 18 Nordeste 0 1019.5 -2.5 74
2018-09-28 04:00:00 22.2 8 Nordeste 19 Este 0 1020.4 -2 73
2018-09-28 03:00:00 22.5 11 Nordeste 24 Este 0 1021.2 -1.2 72
2018-09-28 02:00:00 22.7 9 Nordeste 29 Nordeste 0 1022 -0.4 70
2018-09-28 01:00:00 23.1 12 Nordeste 30 Nordeste 0 1022.4 0.4 69
2018-09-28 00:00:00 23.3 12 Nordeste 31 Este 0 1022.4 0.8 67
2018-09-27 23:00:00 23 9 Nordeste 28 Este 0 1022.4 1 63
2018-09-27 22:00:00 22.9 11 Nordeste 31 Nordeste 0 1022 0.6 59
2018-09-27 21:00:00 23.2 18 Nordeste 37 Este 0 1021.6 0 66
2018-09-27 20:00:00 23.6 23 Este 40 Este 0 1021.4 -0.5 66
2018-09-27 19:00:00 25 19 Nordeste 31 Este 0 1021.4 -1.1 62
2018-09-27 18:00:00 24.5 18 Nordeste 37 Este 0 1021.6 -1.8 63
2018-09-27 17:00:00 25.4 22 Este 39 Este 0 1021.9 -2 60
2018-09-27 16:00:00 24.6 23 Este 38 Este 0 1022.5 -1.9 64
2018-09-27 15:00:00 24.1 18 Este 35 Este 0 1023.4 -1.4 67
2018-09-27 14:00:00 25 22 Este 40 Este 0 1023.9 -0.9 64
2018-09-27 13:00:00 25.5 19 Este 36 Este 0 1024.4 0.2 66
2018-09-27 12:00:00 25.2 20 Este 31 Este 0 1024.8 1.1 68
2018-09-27 11:00:00 24.5 20 Nordeste 38 Nordeste 0 1024.8 1.3 68
2018-09-27 10:00:00 24.3 21 Nordeste 37 Este 0 1024.2 0.9 65
2018-09-27 09:00:00 23.6 11 Nordeste 33 Este 0 1023.7 0.3 68
2018-09-27 08:00:00 23.3 14 Nordeste 33 Este 0 1023.5 -0.3 69
2018-09-27 07:00:00 23.2 13 Nordeste 30 Nordeste 0 1023.3 -1 69
2018-09-27 06:00:00 23.4 9 Nordeste 26 Este 0 1023.4 -1.4 69
2018-09-27 05:00:00 23.6 14 Nordeste 32 Nordeste 0 1023.8 -1.3 70
2018-09-27 04:00:00 24 17 Nordeste 30 Este 0 1024.3 -0.9 69
2018-09-27 03:00:00 23.6 9 Nordeste 21 Este 0 1024.8 -0.5 70
2018-09-27 02:00:00 23.8 9 Nordeste 29 Nordeste 0 1025.1 -0.2 71
2018-09-27 01:00:00 24.1 17 Este 33 Este 0 1025.2 0.5 71
2018-09-27 00:00:00 24.1 16 Nordeste 29 Este 0 1025.3 1.2 69
2018-09-26 23:00:00 24.3 15 Nordeste 33 Nordeste 0 1025.3 2.1 68
2018-09-26 22:00:00 24.5 17 Nordeste 31 Este 0 1024.7 1.7 67
2018-09-26 21:00:00 24.4 18 Este 32 Nordeste 0 1024.1 1 68
2018-09-26 20:00:00 24.4 19 Nordeste 34 Nordeste 0 1023.2 0.3 67
2018-09-26 19:00:00 25.1 20 Nordeste 37 Nordeste 0 1023 -0.2 67
2018-09-26 18:00:00 25.9 23 Este 37 Nordeste 0 1023.1 -0.5 66
2018-09-26 17:00:00 26.8 21 Este 33 Nordeste 0 1022.9 -1.4 63
2018-09-26 16:00:00 27.4 20 Este 32 Nordeste 0 1023.2 -1.4 61
2018-09-26 15:00:00 28 19 Nordeste 33 Este 0 1023.6 -1.2 58
2018-09-26 14:00:00 27.5 21 Este 33 Este 0 1024.3 -0.3 60
2018-09-26 13:00:00 27.2 19 Este 35 Nordeste 0 1024.6 0.6 61
2018-09-26 12:00:00 26.9 22 Este 32 Este 0 1024.8 1.3 62
2018-09-26 11:00:00 25.8 19 Este 32 Este 0 1024.6 1.6 66
2018-09-26 10:00:00 24.4 14 Nordeste 27 Nordeste 0 1024 1.7 70
2018-09-26 09:00:00 23.8 13 Nordeste 30 Nordeste 0 1023.5 1.3 72
2018-09-26 08:00:00 23.6 15 Nordeste 28 Este 0 1023 1 76
2018-09-26 07:00:00 23.3 11 Nordeste 27 Nordeste 0 1022.3 0.3 74
2018-09-26 06:00:00 23.6 10 Nordeste 31 Este 0 1022.2 -0.1 75
2018-09-26 05:00:00 23.9 13 Nordeste 30 Este 0 1022 -0.3 74
2018-09-26 04:00:00 23.8 10 Nordeste 27 Este 0 1022 -0.1 73
2018-09-26 03:00:00 24 12 Nordeste 28 Este 0 1022.3 0.5 72
2018-09-26 02:00:00 24.1 11 Nordeste 28 Nordeste 0 1022.3 1 71
2018-09-26 01:00:00 23.8 9 Nordeste 23 Norte 0 1022.1 1.5 71
2018-09-26 00:00:00 23.7 8 Nordeste 25 Este 0 1021.8 1.7 71
2018-09-25 23:00:00 24.1 9 Nordeste 19 Nordeste 0 1021.3 1.7 68
2018-09-25 22:00:00 24.1 9 Nordeste 24 Nordeste 0 1020.6 1.1 69
2018-09-25 21:00:00 24.4 9 Nordeste 26 Este 0 1020.1 0.3 71
2018-09-25 20:00:00 25.4 11 Nordeste 25 Este 0 1019.6 -0.4 67
2018-09-25 19:00:00 27 12 Nordeste 27 Nordeste 0 1019.5 -0.6 62
2018-09-25 18:00:00 28.2 9 Nordeste 25 Este 0 1019.8 -1 58
2018-09-25 17:00:00 28.5 11 Nordeste 28 Este 0 1020 -1.5 59
2018-09-25 16:00:00 27.3 17 Este 27 Este 0 1020.1 -1.7 65
2018-09-25 15:00:00 28.3 18 Este 33 Este 0 1020.8 -0.8 60
2018-09-25 14:00:00 27.4 22 Este 31 Este 0 1021.5 0.3 63
2018-09-25 13:00:00 27.9 16 Este 24 Este 0 1021.8 1.5 57
2018-09-25 12:00:00 26.8 14 Este 25 Este 0 1021.6 2.2 61
2018-09-25 11:00:00 26.5 15 Este 24 Este 0 1021.2 2.5 61
2018-09-25 10:00:00 25.3 10 Nordeste 19 Nordeste 0 1020.3 2.3 47
2018-09-25 09:00:00 22.5 5 Nordeste 12 Este 0 1019.4 1.6 55
2018-09-25 08:00:00 23.6 5 Este 18 Nordeste 0 1018.7 0.7 52
2018-09-25 07:00:00 25.3 10 Nordeste 19 Nordeste 0 1018 -0.4 30
2018-09-25 06:00:00 24.8 10 Nordeste 19 Nordeste 0 1017.8 -0.8 30
2018-09-25 05:00:00 24.5 9 Nordeste 17 Nordeste 0 1018 -0.9 29
2018-09-25 04:00:00 24.4 10 Nordeste 18 Nordeste 0 1018.4 -0.6 29
2018-09-25 03:00:00 24.3 9 Nordeste 17 Nordeste 0 1018.6 -0.5 30
2018-09-25 02:00:00 23.9 7 Nordeste 14 Norte 0 1018.9 0 31
2018-09-25 01:00:00 23.7 5 Nordeste 12 Nordeste 0 1019 0.5 34
2018-09-25 00:00:00 23 3 Nordeste 11 Nordeste 0 1019.1 1 43
2018-09-24 23:00:00 23.1 5 Nordeste 12 Nordeste 0 1018.9 0.7 47
2018-09-24 22:00:00 23.8 6 Nordeste 11 Nordeste 0 1018.5 0.8 41
2018-09-24 21:00:00 23.7 5 Nordeste 10 Nordeste 0 1018.1 0.5 58
2018-09-24 20:00:00 26.4 2 Sur 14 Este 0 1018.2 0.2 57
2018-09-24 19:00:00 28.4 8 Este 14 Este 0 1017.7 -0.7 50
2018-09-24 18:00:00 28.9 6 Este 13 Este 0 1017.6 -1.5 39
2018-09-24 17:00:00 28.9 5 Sudeste 10 Sur 0 1018 -1.7 45
2018-09-24 16:00:00 29 5 Sudeste 11 Sudeste 0 1018.4 -1.4 50
2018-09-24 15:00:00 29.6 4 Sudoeste 10 Sudoeste 0 1019.1 -0.6 52
2018-09-24 14:00:00 28.9 7 Sudoeste 11 Sudoeste 0 1019.7 0.1 53
2018-09-24 13:00:00 29.7 5 Sur 10 Sur 0 1019.8 0.6 49
2018-09-24 12:00:00 29.8 3 Sur 14 Este 0 1019.7 1.1 44
2018-09-24 11:00:00 29 6 Este 13 Este 0 1019.6 1.4 36
2018-09-24 10:00:00 26.5 5 Este 12 Nordeste 0 1019.2 1.1 42
2018-09-24 09:00:00 24.1 5 Nordeste 15 Nordeste 0 1018.6 0.4 42
2018-09-24 08:00:00 24 5 Nordeste 18 Nordeste 0 1018.2 -0.3 38
2018-09-24 07:00:00 24 6 Nordeste 18 Nordeste 0 1018.1 -0.7 40
2018-09-24 06:00:00 24.3 7 Nordeste 15 Nordeste 0 1018.2 -1 35
2018-09-24 05:00:00 24.4 5 Norte 17 Nordeste 0 1018.5 -1 35
2018-09-24 04:00:00 24.5 8 Nordeste 21 Nordeste 0 1018.8 -0.8 37
2018-09-24 03:00:00 23.8 8 Nordeste 19 Nordeste 0 1019.2 -0.5 42
2018-09-24 02:00:00 22.6 8 Nordeste 16 Nordeste 0 1019.5 -0.3 45
2018-09-24 01:00:00 22.3 4 Nordeste 10 Este 0 1019.6 -0.3 53
2018-09-24 00:00:00 23.7 5 Nordeste 14 Nordeste 0 1019.7 0.4 47
2018-09-23 23:00:00 24 6 Nordeste 16 Nordeste 0 1019.8 0.6 50
2018-09-23 22:00:00 24 6 Nordeste 19 Este 0 1019.9 1 54
2018-09-23 21:00:00 25.4 12 Este 23 Este 0 1019.3 0.4 53
2018-09-23 20:00:00 26.5 13 Este 30 Este 0 1019.2 -0.1 48
2018-09-23 19:00:00 27.5 17 Este 32 Este 0 1018.9 -0.8 41
2018-09-23 18:00:00 27.7 13 Este 25 Este 0 1018.9 -1.4 48
2018-09-23 17:00:00 29.2 9 Nordeste 22 Este 0 1019.3 -1.4 44
2018-09-23 16:00:00 29 13 Este 26 Este 0 1019.7 -1.3 38
2018-09-23 15:00:00 30 5 Este 15 Este 0 1020.3 -0.5 37
2018-09-23 14:00:00 28.8 4 Este 18 Sudoeste 0 1020.7 0 44
2018-09-23 13:00:00 29.3 8 Sudoeste 27 Este 0 1021 0.6 50
2018-09-23 12:00:00 28.3 8 Este 19 Este 0 1020.8 0.9 46
2018-09-23 11:00:00 27.1 12 Este 18 Este 0 1020.7 1.3 41
2018-09-23 10:00:00 25.7 10 Este 20 Nordeste 0 1020.4 0.9 40
2018-09-23 09:00:00 22.6 7 Nordeste 15 Este 0 1019.9 0.5 47
2018-09-23 08:00:00 22.7 8 Nordeste 18 Nordeste 0 1019.4 -0.2 42
2018-09-23 07:00:00 23.1 9 Nordeste 22 Nordeste 0 1019.5 -0.7 38
2018-09-23 06:00:00 23.1 10 Nordeste 20 Nordeste 0 1019.4 -1.2 37
2018-09-23 05:00:00 22.9 9 Nordeste 17 Nordeste 0 1019.6 -1.4 42
2018-09-23 04:00:00 22.7 8 Nordeste 15 Nordeste 0 1020.2 -1.3 42
2018-09-23 03:00:00 22.9 10 Nordeste 17 Nordeste 0 1020.6 -0.9 44
2018-09-23 02:00:00 22.7 8 Nordeste 17 Nordeste 0 1021 -0.3 47
2018-09-23 01:00:00 23.1 8 Nordeste 20 Nordeste 0 1021.5 0.6 47
2018-09-23 00:00:00 23.1 9 Nordeste 17 Nordeste 0 1021.5 1.3 48
2018-09-22 23:00:00 23.6 7 Nordeste 22 Nordeste 0 1021.3 1.3 48
2018-09-22 22:00:00 23.6 8 Nordeste 23 Este 0 1020.9 1.1 54
2018-09-22 21:00:00 24 8 Nordeste 26 Este 0 1020.2 0.4 61
2018-09-22 20:00:00 25.4 15 Este 28 Este 0 1020 0.1 56
2018-09-22 19:00:00 26.6 17 Este 33 Este 0 1019.8 -0.7 52
2018-09-22 18:00:00 27.9 9 Nordeste 27 Nordeste 0 1019.8 -1.1 55
2018-09-22 17:00:00 28.5 12 Nordeste 27 Este 0 1019.9 -1.4 52
2018-09-22 16:00:00 28.7 9 Nordeste 28 Este 0 1020.5 -0.8 61
2018-09-22 15:00:00 27.2 18 Este 28 Este 0 1020.9 -0.2 64
2018-09-22 14:00:00 27.1 17 Este 30 Este 0 1021.3 0.6 65
2018-09-22 13:00:00 27 15 Este 25 Este 0 1021.3 0.9 65
2018-09-22 12:00:00 26.2 18 Este 31 Este 0 1021.1 1.4 66
2018-09-22 11:00:00 25.2 15 Este 26 Este 0 1020.7 1.5 69
2018-09-22 10:00:00 23.9 12 Este 17 Este 0 1020.4 1.8 65
2018-09-22 09:00:00 19.6 6 Nordeste 12 Nordeste 0 1019.7 1.4 75
2018-09-22 08:00:00 18.6 3 Nordeste 6 Nordeste 0 1019.2 1 75
2018-09-22 07:00:00 19.2 4 Nordeste 5 Nordeste 0 1018.6 0.2 78
2018-09-22 06:00:00 19.6 3 Oeste 5 Sudoeste 0 1018.3 -0.5 78
2018-09-22 05:00:00 19.8 2 Noroeste 6 Norte 0 1018.2 -0.8 78
2018-09-22 04:00:00 20 2 Noroeste 5 Noroeste 0 1018.4 -0.5 79
2018-09-22 03:00:00 20.2 3 Oeste 6 Noroeste 0 1018.8 -0.1 82
2018-09-22 02:00:00 20.4 2 Noroeste 5 Nordeste 0 1019 0.2 82
2018-09-22 01:00:00 21.5 0 Calma 3 Sudoeste 0 1018.9 0.6 82
2018-09-22 00:00:00 21.8 2 Nordeste 5 Norte 0 1018.9 1.5 81
2018-09-21 23:00:00 22.4 2 Oeste 6 Nordeste 0 1018.8 1.5 81
2018-09-21 22:00:00 23.3 2 Sur 10 Este 0 1018.3 1.4 80
2018-09-21 21:00:00 23.8 7 Este 15 Este 0 1017.4 0.6 77
2018-09-21 20:00:00 24.7 7 Este 11 Este 0 1017.3 0.1 73
2018-09-21 19:00:00 26.6 6 Este 11 Sudeste 0 1016.9 -0.6 67
2018-09-21 18:00:00 27.3 7 Este 15 Este 0 1016.8 -1 65
2018-09-21 17:00:00 27.8 9 Este 14 Este 0 1017.2 -1.1 64
2018-09-21 16:00:00 28.4 8 Sudeste 13 Sudeste 0 1017.5 -1 61
2018-09-21 15:00:00 28.4 6 Sudeste 13 Sudeste 0 1017.8 -0.9 61
2018-09-21 14:00:00 28.5 5 Sur 13 Sudeste 0 1018.3 0 61
2018-09-21 13:00:00 27.7 6 Sudeste 11 Sudeste 0 1018.5 0.6 62
2018-09-21 12:00:00 26.5 4 Sudeste 8 Sudeste 0 1018.7 1 66
2018-09-21 11:00:00 24.7 5 Sudoeste 8 Sudoeste 0 1018.3 1.2 75
2018-09-21 10:00:00 22.8 5 Sudoeste 7 Sudoeste 0 1017.9 1.1 81
2018-09-21 09:00:00 20.4 0 Calma 3 Este 0 1017.7 1 82
2018-09-21 08:00:00 20 0 Calma 3 Oeste 0 1017.1 0.6 81
2018-09-21 07:00:00 20.5 2 Noroeste 6 Oeste 0 1016.8 0.1 81
2018-09-21 06:00:00 20.6 4 Oeste 6 Oeste 0 1016.7 -0.5 81
2018-09-21 05:00:00 21.2 2 Sudoeste 4 Oeste 0 1016.5 -1.1 80
2018-09-21 04:00:00 21.7 2 Oeste 5 Sudoeste 0 1016.7 -1.2 78
2018-09-21 03:00:00 22.5 3 Sudoeste 7 Nordeste 0 1017.2 -0.7 74
2018-09-21 02:00:00 22.6 2 Noroeste 12 Nordeste 0 1017.6 -0.2 67
2018-09-21 01:00:00 22 6 Nordeste 12 Nordeste 0 1017.9 0.3 72
2018-09-21 00:00:00 22.8 5 Nordeste 12 Nordeste 0 1017.9 0.7 71
2018-09-20 23:00:00 22.3 4 Nordeste 12 Este 0 1017.8 0.6 75
2018-09-20 22:00:00 23.1 8 Nordeste 14 Este 0 1017.6 0.4 78
2018-09-20 21:00:00 23.8 7 Nordeste 15 Este 0 1017.2 -0.2 78
2018-09-20 20:00:00 24.6 9 Este 14 Este 0 1017.2 -0.6 75
2018-09-20 19:00:00 25.2 9 Este 16 Este 0 1017.2 -1.1 71
2018-09-20 18:00:00 26.6 11 Este 19 Este 0 1017.4 -1.4 68
2018-09-20 17:00:00 27.4 11 Este 19 Este 0 1017.8 -1.5 65
2018-09-20 16:00:00 27.6 11 Este 20 Este 0 1018.3 -1.4 65
2018-09-20 15:00:00 27.8 12 Este 20 Este 0 1018.8 -1 64
2018-09-20 14:00:00 27.8 12 Este 22 Este 0 1019.3 -0.3 65
2018-09-20 13:00:00 27.9 12 Este 19 Este 0 1019.7 0.4 63
2018-09-20 12:00:00 27 14 Este 22 Este 0 1019.8 0.8 63
2018-09-20 11:00:00 26 10 Este 16 Este 0 1019.6 1.1 66
2018-09-20 10:00:00 24.9 9 Este 15 Este 0 1019.3 0.8 69
2018-09-20 09:00:00 23.9 5 Nordeste 17 Nordeste 0 1019 0.5 71
2018-09-20 08:00:00 23.6 7 Nordeste 15 Nordeste 0 1018.5 -0.1 69
2018-09-20 07:00:00 23.2 8 Nordeste 16 Nordeste 0 1018.5 -0.4 68
2018-09-20 06:00:00 22.9 8 Nordeste 15 Nordeste 0 1018.5 -0.8 69
2018-09-20 05:00:00 23 8 Nordeste 14 Nordeste 0 1018.6 -0.9 68
2018-09-20 04:00:00 23 8 Nordeste 14 Nordeste 0 1018.9 -0.6 68
2018-09-20 03:00:00 23 6 Nordeste 17 Norte 0 1019.3 -0.2 68
2018-09-20 02:00:00 23 6 Nordeste 19 Nordeste 0 1019.5 -0.1 69
2018-09-20 01:00:00 23 9 Nordeste 17 Nordeste 0 1019.5 0.1 72
2018-09-20 00:00:00 22.9 7 Este 14 Nordeste 0 1019.5 0.4 77